Meteo Giornale » Osservazioni meteo Stati Uniti (USA) » Auburn-Lewiston

ore: 15:56 - Osservazioni Meteo Auburn-Lewiston
Lat. 44° 3' N Lon. 70° 17' W Alt. 88 metri s.l.m.

molto_nuvoloso

23 °C

Molto Nuvoloso

Temp. 24 Ore

10 °C

26 °C

Sud

18.5 Km/h

Dew point 15 °C

Umidità 60 %

Visibilità  10 Km

Il sole sorge alle ore 06:04

Il sole tramonta alle ore 19:17

Data e Ora Cielo e Fenomeni T °C DP °C Um. % Pres. hPa Vis. km Vento km/h
Oggi h: 15:56 molto_nuvoloso Molto Nuvoloso 23 15 60 1017 10 S 18.5
Oggi h: 14:56 nuvoloso Nuvoloso 24 11 43 1018 10 N 5.5
Oggi h: 13:56 poco_nuvoloso Poco Nuvoloso 24 11 43 1018 10 N 0
Oggi h: 12:56 nuvoloso Nuvoloso 23 12 49 1018 10 N/NE 11.1
Oggi h: 11:56 poco_nuvoloso Poco Nuvoloso 22 12 53 1018 10 N 5.5
Oggi h: 10:56 sereno Sereno 20 12 59 1018 10 N 11.1
Oggi h: 09:56 sereno Sereno 18 12 67 1019 10 N 14.8
Oggi h: 08:56 sereno Sereno 14 12 87 1019 10 N 5.5
Oggi h: 08:04 poco_nuvoloso Poco Nuvoloso 12 11 93 1019 10 N 0
Oggi h: 07:56 sereno Sereno 12 11 93 1019 10 N 0
Oggi h: 06:56 sereno Sereno 11 11 100 1018 10 N 0
Oggi h: 05:56 sereno Sereno 10 10 100 1018 10 N 5.5
Oggi h: 04:56 sereno Sereno 10 10 100 1018 10 N 0
Oggi h: 03:56 sereno Sereno 10 10 100 1018 10 N 0
Oggi h: 02:56 sereno Sereno 10 10 100 1018 10 N 0
Oggi h: 01:56 sereno Sereno 11 11 100 1018 10 N 0
Oggi h: 00:56 sereno Sereno 11 11 100 1018 10 N 0
Ieri h: 23:56 sereno Sereno 12 11 93 1018 10 N 0
Ieri h: 22:56 sereno Sereno 13 11 87 1018 10 N 0
Ieri h: 21:56 sereno Sereno 14 12 87 1018 10 N 0
Ieri h: 20:56 sereno Sereno 16 12 77 1018 10 N 0
Ieri h: 19:56 sereno Sereno 18 11 63 1018 10 S 7.4
Ieri h: 18:56 sereno Sereno 21 10 49 1018 10 S/SE 9.3
Ieri h: 17:56 sereno Sereno 23 11 46 1017 10 S/SE 14.8
Ieri h: 16:56 sereno Sereno 26 7 29 1018 10 N 5.5